sensor_id;sensor_type;location;lat;lon;timestamp;P1;durP1;ratioP1;P2;durP2;ratioP2
3815;SDS011;1923;48.154;11.536;2023-06-01T00:01:01;9.10;;;4.70;;
3815;SDS011;1923;48.154;11.536;2023-06-01T00:03:30;8.83;;;4.30;;
3815;SDS011;1923;48.154;11.536;2023-06-01T00:05:58;11.03;;;5.13;;
3815;SDS011;1923;48.154;11.536;2023-06-01T00:08:26;9.90;;;4.70;;
3815;SDS011;1923;48.154;11.536;2023-06-01T00:10:56;7.43;;;5.23;;
3815;SDS011;1923;48.154;11.536;2023-06-01T00:13:24;8.23;;;4.53;;
3815;SDS011;1923;48.154;11.536;2023-06-01T00:15:52;7.17;;;4.10;;
3815;SDS011;1923;48.154;11.536;2023-06-01T00:18:20;7.23;;;4.00;;
3815;SDS011;1923;48.154;11.536;2023-06-01T00:20:48;8.87;;;4.93;;
3815;SDS011;1923;48.154;11.536;2023-06-01T00:23:17;5.43;;;3.97;;
3815;SDS011;1923;48.154;11.536;2023-06-01T00:25:46;7.57;;;4.30;;
3815;SDS011;1923;48.154;11.536;2023-06-01T00:28:15;9.20;;;4.97;;
3815;SDS011;1923;48.154;11.536;2023-06-01T00:30:43;8.63;;;3.73;;
3815;SDS011;1923;48.154;11.536;2023-06-01T00:33:11;8.17;;;5.10;;
3815;SDS011;1923;48.154;11.536;2023-06-01T00:35:40;9.03;;;4.53;;
3815;SDS011;1923;48.154;11.536;2023-06-01T00:38:08;8.73;;;4.67;;
3815;SDS011;1923;48.154;11.536;2023-06-01T00:40:36;8.37;;;4.63;;
3815;SDS011;1923;48.154;11.536;2023-06-01T00:43:04;8.57;;;4.90;;
3815;SDS011;1923;48.154;11.536;2023-06-01T00:45:33;14.20;;;4.63;;
3815;SDS011;1923;48.154;11.536;2023-06-01T00:48:01;9.67;;;4.80;;
3815;SDS011;1923;48.154;11.536;2023-06-01T00:50:29;8.47;;;4.30;;
3815;SDS011;1923;48.154;11.536;2023-06-01T00:52:58;7.43;;;4.57;;
3815;SDS011;1923;48.154;11.536;2023-06-01T00:55:27;8.40;;;4.40;;
3815;SDS011;1923;48.154;11.536;2023-06-01T00:57:55;15.40;;;5.17;;
3815;SDS011;1923;48.154;11.536;2023-06-01T01:00:23;14.53;;;5.10;;
3815;SDS011;1923;48.154;11.536;2023-06-01T01:02:55;6.43;;;4.17;;
3815;SDS011;1923;48.154;11.536;2023-06-01T01:05:23;8.43;;;4.33;;
3815;SDS011;1923;48.154;11.536;2023-06-01T01:07:55;7.20;;;4.50;;
3815;SDS011;1923;48.154;11.536;2023-06-01T01:10:29;7.67;;;5.10;;
3815;SDS011;1923;48.154;11.536;2023-06-01T01:13:01;9.00;;;4.47;;
3815;SDS011;1923;48.154;11.536;2023-06-01T01:15:36;10.17;;;5.30;;
3815;SDS011;1923;48.154;11.536;2023-06-01T01:18:14;6.70;;;4.13;;
3815;SDS011;1923;48.154;11.536;2023-06-01T01:20:48;8.43;;;4.93;;
3815;SDS011;1923;48.154;11.536;2023-06-01T01:23:32;10.30;;;5.53;;
3815;SDS011;1923;48.154;11.536;2023-06-01T01:26:22;8.07;;;5.23;;
3815;SDS011;1923;48.154;11.536;2023-06-01T01:28:56;7.50;;;4.67;;
3815;SDS011;1923;48.154;11.536;2023-06-01T01:31:27;6.20;;;4.20;;
3815;SDS011;1923;48.154;11.536;2023-06-01T01:33:57;7.80;;;5.27;;
3815;SDS011;1923;48.154;11.536;2023-06-01T01:36:26;8.10;;;5.27;;
3815;SDS011;1923;48.154;11.536;2023-06-01T01:38:55;11.20;;;6.00;;
3815;SDS011;1923;48.154;11.536;2023-06-01T01:41:23;7.60;;;4.13;;
3815;SDS011;1923;48.154;11.536;2023-06-01T01:43:52;8.27;;;5.10;;
3815;SDS011;1923;48.154;11.536;2023-06-01T01:46:25;8.87;;;4.53;;
3815;SDS011;1923;48.154;11.536;2023-06-01T01:48:59;7.37;;;4.80;;
3815;SDS011;1923;48.154;11.536;2023-06-01T01:51:36;7.47;;;5.10;;
3815;SDS011;1923;48.154;11.536;2023-06-01T01:54:10;7.80;;;4.30;;
3815;SDS011;1923;48.154;11.536;2023-06-01T01:56:39;7.00;;;4.40;;
3815;SDS011;1923;48.154;11.536;2023-06-01T01:59:08;8.80;;;5.60;;
3815;SDS011;1923;48.154;11.536;2023-06-01T02:01:38;7.43;;;4.73;;
3815;SDS011;1923;48.154;11.536;2023-06-01T02:04:08;7.37;;;4.90;;
3815;SDS011;1923;48.154;11.536;2023-06-01T02:06:36;7.43;;;4.43;;
3815;SDS011;1923;48.154;11.536;2023-06-01T02:09:04;8.40;;;5.10;;
3815;SDS011;1923;48.154;11.536;2023-06-01T02:11:33;8.80;;;4.60;;
3815;SDS011;1923;48.154;11.536;2023-06-01T02:14:02;9.47;;;4.90;;
3815;SDS011;1923;48.154;11.536;2023-06-01T02:16:30;7.47;;;4.97;;
3815;SDS011;1923;48.154;11.536;2023-06-01T02:19:00;10.63;;;5.30;;
3815;SDS011;1923;48.154;11.536;2023-06-01T02:21:29;9.27;;;5.37;;
3815;SDS011;1923;48.154;11.536;2023-06-01T02:23:57;6.43;;;4.43;;
3815;SDS011;1923;48.154;11.536;2023-06-01T02:26:31;12.10;;;4.60;;
3815;SDS011;1923;48.154;11.536;2023-06-01T02:28:59;8.97;;;5.40;;
3815;SDS011;1923;48.154;11.536;2023-06-01T02:31:28;7.67;;;4.43;;
3815;SDS011;1923;48.154;11.536;2023-06-01T02:33:57;8.63;;;5.00;;
3815;SDS011;1923;48.154;11.536;2023-06-01T02:36:26;6.43;;;4.57;;
3815;SDS011;1923;48.154;11.536;2023-06-01T02:38:55;8.27;;;5.10;;
3815;SDS011;1923;48.154;11.536;2023-06-01T02:41:23;7.90;;;5.60;;
3815;SDS011;1923;48.154;11.536;2023-06-01T02:43:52;6.97;;;4.73;;
3815;SDS011;1923;48.154;11.536;2023-06-01T02:46:20;10.50;;;6.00;;
3815;SDS011;1923;48.154;11.536;2023-06-01T02:48:48;9.27;;;4.47;;
3815;SDS011;1923;48.154;11.536;2023-06-01T02:51:17;10.40;;;5.30;;
3815;SDS011;1923;48.154;11.536;2023-06-01T02:53:47;10.53;;;5.67;;
3815;SDS011;1923;48.154;11.536;2023-06-01T02:56:15;16.63;;;5.07;;
3815;SDS011;1923;48.154;11.536;2023-06-01T02:58:43;8.60;;;5.17;;
3815;SDS011;1923;48.154;11.536;2023-06-01T03:01:12;6.27;;;4.60;;
3815;SDS011;1923;48.154;11.536;2023-06-01T03:03:41;8.97;;;5.30;;
3815;SDS011;1923;48.154;11.536;2023-06-01T03:06:10;10.80;;;4.97;;
3815;SDS011;1923;48.154;11.536;2023-06-01T03:08:39;7.77;;;4.70;;
3815;SDS011;1923;48.154;11.536;2023-06-01T03:11:09;7.83;;;4.53;;
3815;SDS011;1923;48.154;11.536;2023-06-01T03:13:37;7.63;;;5.40;;
3815;SDS011;1923;48.154;11.536;2023-06-01T03:16:05;8.47;;;5.70;;
3815;SDS011;1923;48.154;11.536;2023-06-01T03:18:33;9.70;;;5.07;;
3815;SDS011;1923;48.154;11.536;2023-06-01T03:21:04;10.03;;;5.33;;
3815;SDS011;1923;48.154;11.536;2023-06-01T03:23:32;11.73;;;5.60;;
3815;SDS011;1923;48.154;11.536;2023-06-01T03:26:00;9.80;;;5.70;;
3815;SDS011;1923;48.154;11.536;2023-06-01T03:28:31;8.23;;;5.13;;
3815;SDS011;1923;48.154;11.536;2023-06-01T03:30:59;9.13;;;5.17;;
3815;SDS011;1923;48.154;11.536;2023-06-01T03:33:28;12.40;;;7.50;;
3815;SDS011;1923;48.154;11.536;2023-06-01T03:35:56;12.37;;;5.20;;
3815;SDS011;1923;48.154;11.536;2023-06-01T03:38:25;8.47;;;4.27;;
3815;SDS011;1923;48.154;11.536;2023-06-01T03:40:52;13.37;;;4.50;;
3815;SDS011;1923;48.154;11.536;2023-06-01T03:43:21;9.23;;;5.17;;
3815;SDS011;1923;48.154;11.536;2023-06-01T03:45:51;8.50;;;5.13;;
3815;SDS011;1923;48.154;11.536;2023-06-01T03:48:19;7.37;;;4.70;;
3815;SDS011;1923;48.154;11.536;2023-06-01T03:50:47;7.37;;;4.23;;
3815;SDS011;1923;48.154;11.536;2023-06-01T03:53:15;8.87;;;5.40;;
3815;SDS011;1923;48.154;11.536;2023-06-01T03:55:43;7.20;;;4.47;;
3815;SDS011;1923;48.154;11.536;2023-06-01T03:58:11;6.43;;;4.77;;
3815;SDS011;1923;48.154;11.536;2023-06-01T04:00:39;6.60;;;4.43;;
3815;SDS011;1923;48.154;11.536;2023-06-01T04:03:09;7.80;;;4.43;;
3815;SDS011;1923;48.154;11.536;2023-06-01T04:05:37;9.77;;;5.27;;
3815;SDS011;1923;48.154;11.536;2023-06-01T04:08:06;8.17;;;4.80;;
3815;SDS011;1923;48.154;11.536;2023-06-01T04:10:35;15.03;;;4.70;;
3815;SDS011;1923;48.154;11.536;2023-06-01T04:13:03;6.90;;;4.90;;
3815;SDS011;1923;48.154;11.536;2023-06-01T04:15:31;9.90;;;4.73;;
3815;SDS011;1923;48.154;11.536;2023-06-01T04:17:59;9.73;;;5.60;;
3815;SDS011;1923;48.154;11.536;2023-06-01T04:20:29;12.07;;;5.07;;
3815;SDS011;1923;48.154;11.536;2023-06-01T04:22:57;7.80;;;4.87;;
3815;SDS011;1923;48.154;11.536;2023-06-01T04:25:25;12.60;;;5.27;;
3815;SDS011;1923;48.154;11.536;2023-06-01T04:27:54;9.73;;;5.40;;
3815;SDS011;1923;48.154;11.536;2023-06-01T04:30:23;8.90;;;4.60;;
3815;SDS011;1923;48.154;11.536;2023-06-01T04:32:51;8.90;;;5.77;;
3815;SDS011;1923;48.154;11.536;2023-06-01T04:35:20;10.20;;;5.90;;
3815;SDS011;1923;48.154;11.536;2023-06-01T04:37:49;7.27;;;4.83;;
3815;SDS011;1923;48.154;11.536;2023-06-01T04:40:18;5.80;;;4.40;;
3815;SDS011;1923;48.154;11.536;2023-06-01T04:42:46;11.90;;;5.63;;
3815;SDS011;1923;48.154;11.536;2023-06-01T04:45:15;8.57;;;5.20;;
3815;SDS011;1923;48.154;11.536;2023-06-01T04:47:45;6.80;;;4.90;;
3815;SDS011;1923;48.154;11.536;2023-06-01T04:50:13;6.60;;;4.27;;
3815;SDS011;1923;48.154;11.536;2023-06-01T04:52:43;12.00;;;5.00;;
3815;SDS011;1923;48.154;11.536;2023-06-01T04:55:13;12.17;;;4.70;;
3815;SDS011;1923;48.154;11.536;2023-06-01T04:57:41;8.97;;;5.10;;
3815;SDS011;1923;48.154;11.536;2023-06-01T05:00:10;14.10;;;4.57;;
3815;SDS011;1923;48.154;11.536;2023-06-01T05:02:40;9.30;;;4.83;;
3815;SDS011;1923;48.154;11.536;2023-06-01T05:05:10;9.77;;;5.00;;
3815;SDS011;1923;48.154;11.536;2023-06-01T05:07:39;6.17;;;4.70;;
3815;SDS011;1923;48.154;11.536;2023-06-01T05:10:08;10.33;;;5.67;;
3815;SDS011;1923;48.154;11.536;2023-06-01T05:12:39;8.83;;;5.07;;
3815;SDS011;1923;48.154;11.536;2023-06-01T05:15:08;8.97;;;4.73;;
3815;SDS011;1923;48.154;11.536;2023-06-01T05:17:37;10.13;;;5.60;;
3815;SDS011;1923;48.154;11.536;2023-06-01T05:20:06;6.10;;;4.87;;
3815;SDS011;1923;48.154;11.536;2023-06-01T05:22:37;7.07;;;4.80;;
3815;SDS011;1923;48.154;11.536;2023-06-01T05:25:06;7.20;;;4.10;;
3815;SDS011;1923;48.154;11.536;2023-06-01T05:27:34;9.20;;;5.63;;
3815;SDS011;1923;48.154;11.536;2023-06-01T05:30:05;10.40;;;5.07;;
3815;SDS011;1923;48.154;11.536;2023-06-01T05:32:34;6.40;;;4.80;;
3815;SDS011;1923;48.154;11.536;2023-06-01T05:35:03;6.37;;;4.70;;
3815;SDS011;1923;48.154;11.536;2023-06-01T05:37:32;9.00;;;5.27;;
3815;SDS011;1923;48.154;11.536;2023-06-01T05:40:00;10.90;;;5.10;;
3815;SDS011;1923;48.154;11.536;2023-06-01T05:42:29;9.37;;;5.10;;
3815;SDS011;1923;48.154;11.536;2023-06-01T05:44:57;9.33;;;4.57;;
3815;SDS011;1923;48.154;11.536;2023-06-01T05:47:27;10.10;;;4.63;;
3815;SDS011;1923;48.154;11.536;2023-06-01T05:49:55;8.80;;;5.20;;
3815;SDS011;1923;48.154;11.536;2023-06-01T05:52:23;10.93;;;5.50;;
3815;SDS011;1923;48.154;11.536;2023-06-01T05:54:51;7.17;;;4.57;;
3815;SDS011;1923;48.154;11.536;2023-06-01T05:57:20;8.37;;;5.13;;
3815;SDS011;1923;48.154;11.536;2023-06-01T05:59:48;10.47;;;4.70;;
3815;SDS011;1923;48.154;11.536;2023-06-01T06:02:16;7.83;;;4.67;;
3815;SDS011;1923;48.154;11.536;2023-06-01T06:04:45;7.87;;;4.87;;
3815;SDS011;1923;48.154;11.536;2023-06-01T06:07:14;6.70;;;4.43;;
3815;SDS011;1923;48.154;11.536;2023-06-01T06:09:42;10.63;;;5.13;;
3815;SDS011;1923;48.154;11.536;2023-06-01T06:12:10;8.53;;;4.80;;
3815;SDS011;1923;48.154;11.536;2023-06-01T06:14:38;10.33;;;4.87;;
3815;SDS011;1923;48.154;11.536;2023-06-01T06:17:07;9.20;;;5.27;;
3815;SDS011;1923;48.154;11.536;2023-06-01T06:19:35;7.50;;;5.40;;
3815;SDS011;1923;48.154;11.536;2023-06-01T06:22:05;8.47;;;4.90;;
3815;SDS011;1923;48.154;11.536;2023-06-01T06:24:33;8.80;;;5.00;;
3815;SDS011;1923;48.154;11.536;2023-06-01T06:27:01;8.30;;;5.30;;
3815;SDS011;1923;48.154;11.536;2023-06-01T06:29:30;9.67;;;5.07;;
3815;SDS011;1923;48.154;11.536;2023-06-01T06:31:58;9.07;;;4.50;;
3815;SDS011;1923;48.154;11.536;2023-06-01T06:34:26;7.80;;;5.27;;
3815;SDS011;1923;48.154;11.536;2023-06-01T06:37:00;8.00;;;4.30;;
3815;SDS011;1923;48.154;11.536;2023-06-01T06:39:30;8.63;;;4.90;;
3815;SDS011;1923;48.154;11.536;2023-06-01T06:41:58;6.03;;;4.37;;
3815;SDS011;1923;48.154;11.536;2023-06-01T06:44:27;8.10;;;4.70;;
3815;SDS011;1923;48.154;11.536;2023-06-01T06:46:57;5.53;;;4.10;;
3815;SDS011;1923;48.154;11.536;2023-06-01T06:49:28;9.80;;;5.33;;
3815;SDS011;1923;48.154;11.536;2023-06-01T06:51:56;6.10;;;4.60;;
3815;SDS011;1923;48.154;11.536;2023-06-01T06:54:24;8.97;;;5.00;;
3815;SDS011;1923;48.154;11.536;2023-06-01T06:56:53;7.80;;;4.70;;
3815;SDS011;1923;48.154;11.536;2023-06-01T06:59:22;6.20;;;4.40;;
3815;SDS011;1923;48.154;11.536;2023-06-01T07:01:50;9.50;;;5.33;;
3815;SDS011;1923;48.154;11.536;2023-06-01T07:04:18;8.93;;;4.20;;
3815;SDS011;1923;48.154;11.536;2023-06-01T07:06:47;10.73;;;5.07;;
3815;SDS011;1923;48.154;11.536;2023-06-01T07:09:15;9.13;;;5.10;;
3815;SDS011;1923;48.154;11.536;2023-06-01T07:11:43;7.53;;;4.90;;
3815;SDS011;1923;48.154;11.536;2023-06-01T07:14:12;9.23;;;4.60;;
3815;SDS011;1923;48.154;11.536;2023-06-01T07:16:40;7.73;;;4.47;;
3815;SDS011;1923;48.154;11.536;2023-06-01T07:19:09;6.03;;;4.00;;
3815;SDS011;1923;48.154;11.536;2023-06-01T07:21:36;7.53;;;4.03;;
3815;SDS011;1923;48.154;11.536;2023-06-01T07:24:05;9.77;;;5.07;;
3815;SDS011;1923;48.154;11.536;2023-06-01T07:26:34;10.00;;;4.60;;
3815;SDS011;1923;48.154;11.536;2023-06-01T07:29:02;9.70;;;5.40;;
3815;SDS011;1923;48.154;11.536;2023-06-01T07:31:32;7.83;;;4.70;;
3815;SDS011;1923;48.154;11.536;2023-06-01T07:34:01;7.37;;;4.40;;
3815;SDS011;1923;48.154;11.536;2023-06-01T07:36:29;8.73;;;4.80;;
3815;SDS011;1923;48.154;11.536;2023-06-01T07:38:59;10.17;;;4.67;;
3815;SDS011;1923;48.154;11.536;2023-06-01T07:41:27;10.47;;;5.27;;
3815;SDS011;1923;48.154;11.536;2023-06-01T07:43:56;8.60;;;4.43;;
3815;SDS011;1923;48.154;11.536;2023-06-01T07:46:24;14.97;;;5.30;;
3815;SDS011;1923;48.154;11.536;2023-06-01T07:48:53;7.33;;;4.83;;
3815;SDS011;1923;48.154;11.536;2023-06-01T07:51:23;6.77;;;4.37;;
3815;SDS011;1923;48.154;11.536;2023-06-01T07:53:51;8.60;;;4.77;;
3815;SDS011;1923;48.154;11.536;2023-06-01T07:56:21;8.63;;;4.70;;
3815;SDS011;1923;48.154;11.536;2023-06-01T07:58:53;6.17;;;3.70;;
3815;SDS011;1923;48.154;11.536;2023-06-01T08:01:21;6.97;;;4.30;;
3815;SDS011;1923;48.154;11.536;2023-06-01T08:03:49;8.10;;;4.90;;
3815;SDS011;1923;48.154;11.536;2023-06-01T08:06:19;5.23;;;4.20;;
3815;SDS011;1923;48.154;11.536;2023-06-01T08:08:49;8.03;;;4.50;;
3815;SDS011;1923;48.154;11.536;2023-06-01T08:11:17;7.50;;;4.47;;
3815;SDS011;1923;48.154;11.536;2023-06-01T08:13:45;8.67;;;5.10;;
3815;SDS011;1923;48.154;11.536;2023-06-01T08:16:14;8.47;;;4.80;;
3815;SDS011;1923;48.154;11.536;2023-06-01T08:18:42;8.90;;;4.13;;
3815;SDS011;1923;48.154;11.536;2023-06-01T08:21:11;7.43;;;3.63;;
3815;SDS011;1923;48.154;11.536;2023-06-01T08:23:40;5.63;;;3.83;;
3815;SDS011;1923;48.154;11.536;2023-06-01T08:26:08;5.90;;;3.90;;
3815;SDS011;1923;48.154;11.536;2023-06-01T08:28:36;7.60;;;3.83;;
3815;SDS011;1923;48.154;11.536;2023-06-01T08:31:05;5.20;;;3.40;;
3815;SDS011;1923;48.154;11.536;2023-06-01T08:33:33;7.13;;;3.80;;
3815;SDS011;1923;48.154;11.536;2023-06-01T08:36:01;5.40;;;3.50;;
3815;SDS011;1923;48.154;11.536;2023-06-01T08:38:30;7.30;;;4.07;;
3815;SDS011;1923;48.154;11.536;2023-06-01T08:41:00;5.80;;;3.93;;
3815;SDS011;1923;48.154;11.536;2023-06-01T08:43:31;7.50;;;4.00;;
3815;SDS011;1923;48.154;11.536;2023-06-01T08:46:05;14.07;;;4.40;;
3815;SDS011;1923;48.154;11.536;2023-06-01T08:48:33;7.60;;;3.97;;
3815;SDS011;1923;48.154;11.536;2023-06-01T08:51:02;5.07;;;3.40;;
3815;SDS011;1923;48.154;11.536;2023-06-01T08:53:30;4.70;;;3.77;;
3815;SDS011;1923;48.154;11.536;2023-06-01T08:56:01;6.30;;;3.53;;
3815;SDS011;1923;48.154;11.536;2023-06-01T08:58:30;8.10;;;4.30;;
3815;SDS011;1923;48.154;11.536;2023-06-01T09:00:59;5.97;;;3.17;;
3815;SDS011;1923;48.154;11.536;2023-06-01T09:03:27;6.67;;;3.50;;
3815;SDS011;1923;48.154;11.536;2023-06-01T09:05:55;5.70;;;3.80;;
3815;SDS011;1923;48.154;11.536;2023-06-01T09:08:23;4.20;;;3.47;;
3815;SDS011;1923;48.154;11.536;2023-06-01T09:10:52;7.63;;;4.10;;
3815;SDS011;1923;48.154;11.536;2023-06-01T09:13:31;5.00;;;3.63;;
3815;SDS011;1923;48.154;11.536;2023-06-01T09:16:00;3.83;;;3.20;;
3815;SDS011;1923;48.154;11.536;2023-06-01T09:18:28;4.60;;;3.47;;
3815;SDS011;1923;48.154;11.536;2023-06-01T09:21:09;6.13;;;3.73;;
3815;SDS011;1923;48.154;11.536;2023-06-01T09:23:38;7.53;;;4.10;;
3815;SDS011;1923;48.154;11.536;2023-06-01T09:26:07;6.83;;;4.30;;
3815;SDS011;1923;48.154;11.536;2023-06-01T09:28:54;5.30;;;3.40;;
3815;SDS011;1923;48.154;11.536;2023-06-01T09:31:38;4.93;;;3.13;;
3815;SDS011;1923;48.154;11.536;2023-06-01T09:34:08;6.03;;;3.83;;
3815;SDS011;1923;48.154;11.536;2023-06-01T09:36:38;5.33;;;3.97;;
3815;SDS011;1923;48.154;11.536;2023-06-01T09:39:07;6.13;;;3.60;;
3815;SDS011;1923;48.154;11.536;2023-06-01T09:41:49;6.43;;;3.80;;
3815;SDS011;1923;48.154;11.536;2023-06-01T09:44:23;7.77;;;4.10;;
3815;SDS011;1923;48.154;11.536;2023-06-01T09:46:53;4.93;;;3.87;;
3815;SDS011;1923;48.154;11.536;2023-06-01T09:49:23;4.30;;;3.03;;
3815;SDS011;1923;48.154;11.536;2023-06-01T09:51:52;5.50;;;3.43;;
3815;SDS011;1923;48.154;11.536;2023-06-01T09:54:36;4.93;;;3.40;;
3815;SDS011;1923;48.154;11.536;2023-06-01T09:57:05;3.47;;;3.00;;
3815;SDS011;1923;48.154;11.536;2023-06-01T09:59:40;5.57;;;3.30;;
3815;SDS011;1923;48.154;11.536;2023-06-01T10:02:12;4.00;;;2.73;;
3815;SDS011;1923;48.154;11.536;2023-06-01T10:04:42;9.00;;;3.30;;
3815;SDS011;1923;48.154;11.536;2023-06-01T10:07:16;4.03;;;2.83;;
3815;SDS011;1923;48.154;11.536;2023-06-01T10:09:46;4.23;;;2.93;;
3815;SDS011;1923;48.154;11.536;2023-06-01T10:12:17;3.60;;;2.63;;
3815;SDS011;1923;48.154;11.536;2023-06-01T10:14:47;3.97;;;2.53;;
3815;SDS011;1923;48.154;11.536;2023-06-01T10:17:16;6.30;;;3.30;;
3815;SDS011;1923;48.154;11.536;2023-06-01T10:19:45;4.53;;;3.20;;
3815;SDS011;1923;48.154;11.536;2023-06-01T10:22:13;4.70;;;3.27;;
3815;SDS011;1923;48.154;11.536;2023-06-01T10:24:42;3.93;;;2.83;;
3815;SDS011;1923;48.154;11.536;2023-06-01T10:27:14;4.07;;;3.37;;
3815;SDS011;1923;48.154;11.536;2023-06-01T10:29:48;4.20;;;2.87;;
3815;SDS011;1923;48.154;11.536;2023-06-01T10:35:10;4.83;;;3.93;;
3815;SDS011;1923;48.154;11.536;2023-06-01T10:38:31;4.77;;;3.47;;
3815;SDS011;1923;48.154;11.536;2023-06-01T10:43:58;4.00;;;3.00;;
3815;SDS011;1923;48.154;11.536;2023-06-01T10:46:41;3.47;;;2.80;;
3815;SDS011;1923;48.154;11.536;2023-06-01T10:49:11;5.10;;;3.50;;
3815;SDS011;1923;48.154;11.536;2023-06-01T10:51:39;4.60;;;3.10;;
3815;SDS011;1923;48.154;11.536;2023-06-01T10:54:26;4.30;;;3.30;;
3815;SDS011;1923;48.154;11.536;2023-06-01T11:02:49;3.90;;;2.97;;
3815;SDS011;1923;48.154;11.536;2023-06-01T11:05:38;4.87;;;2.67;;
3815;SDS011;1923;48.154;11.536;2023-06-01T11:11:10;5.30;;;2.90;;
3815;SDS011;1923;48.154;11.536;2023-06-01T11:13:39;4.90;;;3.10;;
3815;SDS011;1923;48.154;11.536;2023-06-01T11:18:57;6.37;;;3.23;;
3815;SDS011;1923;48.154;11.536;2023-06-01T11:21:27;4.60;;;3.37;;
3815;SDS011;1923;48.154;11.536;2023-06-01T11:23:57;5.50;;;3.67;;
3815;SDS011;1923;48.154;11.536;2023-06-01T11:26:28;4.60;;;3.43;;
3815;SDS011;1923;48.154;11.536;2023-06-01T11:29:05;4.33;;;3.40;;
3815;SDS011;1923;48.154;11.536;2023-06-01T11:31:42;5.63;;;3.83;;
3815;SDS011;1923;48.154;11.536;2023-06-01T11:34:15;5.17;;;3.50;;
3815;SDS011;1923;48.154;11.536;2023-06-01T11:36:46;5.40;;;3.93;;
3815;SDS011;1923;48.154;11.536;2023-06-01T11:39:16;5.63;;;3.20;;
3815;SDS011;1923;48.154;11.536;2023-06-01T11:42:12;5.73;;;3.63;;
3815;SDS011;1923;48.154;11.536;2023-06-01T11:44:41;4.70;;;3.30;;
3815;SDS011;1923;48.154;11.536;2023-06-01T11:47:10;4.87;;;3.23;;
3815;SDS011;1923;48.154;11.536;2023-06-01T11:49:54;8.63;;;3.60;;
3815;SDS011;1923;48.154;11.536;2023-06-01T11:52:29;4.83;;;3.40;;
3815;SDS011;1923;48.154;11.536;2023-06-01T11:55:06;5.77;;;3.90;;
3815;SDS011;1923;48.154;11.536;2023-06-01T11:57:39;5.90;;;3.23;;
3815;SDS011;1923;48.154;11.536;2023-06-01T12:00:14;6.43;;;3.60;;
3815;SDS011;1923;48.154;11.536;2023-06-01T12:02:49;5.50;;;3.57;;
3815;SDS011;1923;48.154;11.536;2023-06-01T12:05:41;4.90;;;3.20;;
3815;SDS011;1923;48.154;11.536;2023-06-01T12:08:14;6.07;;;3.53;;
3815;SDS011;1923;48.154;11.536;2023-06-01T12:10:44;6.83;;;3.73;;
3815;SDS011;1923;48.154;11.536;2023-06-01T12:13:13;7.17;;;4.03;;
3815;SDS011;1923;48.154;11.536;2023-06-01T12:15:41;7.43;;;3.53;;
3815;SDS011;1923;48.154;11.536;2023-06-01T12:18:10;5.40;;;3.50;;
3815;SDS011;1923;48.154;11.536;2023-06-01T12:20:39;8.90;;;3.73;;
3815;SDS011;1923;48.154;11.536;2023-06-01T12:23:13;5.83;;;3.47;;
3815;SDS011;1923;48.154;11.536;2023-06-01T12:25:49;6.23;;;3.60;;
3815;SDS011;1923;48.154;11.536;2023-06-01T12:28:18;5.50;;;3.37;;
3815;SDS011;1923;48.154;11.536;2023-06-01T12:30:46;7.53;;;4.37;;
3815;SDS011;1923;48.154;11.536;2023-06-01T12:33:30;4.83;;;3.17;;
3815;SDS011;1923;48.154;11.536;2023-06-01T12:36:01;4.73;;;3.73;;
3815;SDS011;1923;48.154;11.536;2023-06-01T12:38:34;4.90;;;3.30;;
3815;SDS011;1923;48.154;11.536;2023-06-01T12:41:06;4.70;;;3.47;;
3815;SDS011;1923;48.154;11.536;2023-06-01T12:43:36;5.10;;;3.33;;
3815;SDS011;1923;48.154;11.536;2023-06-01T12:46:04;7.97;;;3.87;;
3815;SDS011;1923;48.154;11.536;2023-06-01T12:48:33;4.23;;;3.33;;
3815;SDS011;1923;48.154;11.536;2023-06-01T12:51:04;7.17;;;3.67;;
3815;SDS011;1923;48.154;11.536;2023-06-01T12:53:34;8.70;;;3.60;;
3815;SDS011;1923;48.154;11.536;2023-06-01T12:56:02;4.67;;;2.90;;
3815;SDS011;1923;48.154;11.536;2023-06-01T12:58:31;5.53;;;3.73;;
3815;SDS011;1923;48.154;11.536;2023-06-01T13:00:59;6.33;;;3.80;;
3815;SDS011;1923;48.154;11.536;2023-06-01T13:03:27;5.53;;;3.37;;
3815;SDS011;1923;48.154;11.536;2023-06-01T13:05:56;6.10;;;3.43;;
3815;SDS011;1923;48.154;11.536;2023-06-01T13:08:25;5.33;;;3.27;;
3815;SDS011;1923;48.154;11.536;2023-06-01T13:10:54;4.90;;;3.30;;
3815;SDS011;1923;48.154;11.536;2023-06-01T13:13:22;5.83;;;4.03;;
3815;SDS011;1923;48.154;11.536;2023-06-01T13:15:50;3.67;;;3.07;;
3815;SDS011;1923;48.154;11.536;2023-06-01T13:18:18;8.50;;;4.13;;
3815;SDS011;1923;48.154;11.536;2023-06-01T13:20:46;6.37;;;3.83;;
3815;SDS011;1923;48.154;11.536;2023-06-01T13:23:14;6.50;;;3.67;;
3815;SDS011;1923;48.154;11.536;2023-06-01T13:25:44;6.70;;;3.50;;
3815;SDS011;1923;48.154;11.536;2023-06-01T13:28:12;8.13;;;3.50;;
3815;SDS011;1923;48.154;11.536;2023-06-01T13:30:40;4.17;;;3.33;;
3815;SDS011;1923;48.154;11.536;2023-06-01T13:33:08;6.17;;;3.53;;
3815;SDS011;1923;48.154;11.536;2023-06-01T13:35:36;7.03;;;4.37;;
3815;SDS011;1923;48.154;11.536;2023-06-01T13:38:04;5.50;;;3.27;;
3815;SDS011;1923;48.154;11.536;2023-06-01T13:40:32;5.10;;;3.47;;
3815;SDS011;1923;48.154;11.536;2023-06-01T13:43:02;5.50;;;3.50;;
3815;SDS011;1923;48.154;11.536;2023-06-01T13:45:30;4.73;;;3.33;;
3815;SDS011;1923;48.154;11.536;2023-06-01T13:47:58;4.20;;;3.20;;
3815;SDS011;1923;48.154;11.536;2023-06-01T13:50:27;6.73;;;3.87;;
3815;SDS011;1923;48.154;11.536;2023-06-01T13:52:54;5.87;;;3.43;;
3815;SDS011;1923;48.154;11.536;2023-06-01T13:55:22;6.23;;;3.40;;
3815;SDS011;1923;48.154;11.536;2023-06-01T13:57:52;7.70;;;3.80;;
3815;SDS011;1923;48.154;11.536;2023-06-01T14:00:21;6.57;;;3.57;;
3815;SDS011;1923;48.154;11.536;2023-06-01T14:02:49;5.17;;;3.23;;
3815;SDS011;1923;48.154;11.536;2023-06-01T14:05:17;4.93;;;3.20;;
3815;SDS011;1923;48.154;11.536;2023-06-01T14:08:00;5.60;;;3.67;;
3815;SDS011;1923;48.154;11.536;2023-06-01T14:10:30;5.10;;;3.80;;
3815;SDS011;1923;48.154;11.536;2023-06-01T14:13:00;7.33;;;4.27;;
3815;SDS011;1923;48.154;11.536;2023-06-01T14:15:30;6.70;;;3.43;;
3815;SDS011;1923;48.154;11.536;2023-06-01T14:17:58;6.23;;;3.47;;
3815;SDS011;1923;48.154;11.536;2023-06-01T14:20:26;4.60;;;3.40;;
3815;SDS011;1923;48.154;11.536;2023-06-01T14:22:54;6.17;;;2.87;;
3815;SDS011;1923;48.154;11.536;2023-06-01T14:25:22;8.43;;;4.10;;
3815;SDS011;1923;48.154;11.536;2023-06-01T14:27:50;4.80;;;3.20;;
3815;SDS011;1923;48.154;11.536;2023-06-01T14:30:18;6.80;;;3.30;;
3815;SDS011;1923;48.154;11.536;2023-06-01T14:32:47;6.30;;;3.70;;
3815;SDS011;1923;48.154;11.536;2023-06-01T14:35:16;4.30;;;2.83;;
3815;SDS011;1923;48.154;11.536;2023-06-01T14:37:44;9.40;;;4.13;;
3815;SDS011;1923;48.154;11.536;2023-06-01T14:40:16;6.10;;;3.53;;
3815;SDS011;1923;48.154;11.536;2023-06-01T14:42:45;5.40;;;3.03;;
3815;SDS011;1923;48.154;11.536;2023-06-01T14:45:13;4.00;;;2.93;;
3815;SDS011;1923;48.154;11.536;2023-06-01T14:47:42;4.37;;;3.17;;
3815;SDS011;1923;48.154;11.536;2023-06-01T14:50:12;6.53;;;2.90;;
3815;SDS011;1923;48.154;11.536;2023-06-01T14:52:40;6.33;;;3.20;;
3815;SDS011;1923;48.154;11.536;2023-06-01T14:55:09;4.70;;;3.20;;
3815;SDS011;1923;48.154;11.536;2023-06-01T14:57:40;10.60;;;3.30;;
3815;SDS011;1923;48.154;11.536;2023-06-01T15:00:09;6.53;;;3.50;;
3815;SDS011;1923;48.154;11.536;2023-06-01T15:02:38;8.07;;;3.60;;
3815;SDS011;1923;48.154;11.536;2023-06-01T15:05:06;5.70;;;3.07;;
3815;SDS011;1923;48.154;11.536;2023-06-01T15:07:36;8.60;;;3.20;;
3815;SDS011;1923;48.154;11.536;2023-06-01T15:10:05;4.73;;;2.70;;
3815;SDS011;1923;48.154;11.536;2023-06-01T15:12:36;5.63;;;2.67;;
3815;SDS011;1923;48.154;11.536;2023-06-01T15:15:04;4.50;;;2.40;;
3815;SDS011;1923;48.154;11.536;2023-06-01T15:17:33;5.83;;;2.80;;
3815;SDS011;1923;48.154;11.536;2023-06-01T15:20:01;3.60;;;2.40;;
3815;SDS011;1923;48.154;11.536;2023-06-01T15:22:30;3.93;;;2.67;;
3815;SDS011;1923;48.154;11.536;2023-06-01T15:24:59;6.90;;;3.07;;
3815;SDS011;1923;48.154;11.536;2023-06-01T15:27:27;5.93;;;3.30;;
3815;SDS011;1923;48.154;11.536;2023-06-01T15:29:55;9.57;;;4.70;;
3815;SDS011;1923;48.154;11.536;2023-06-01T15:32:23;4.20;;;2.47;;
3815;SDS011;1923;48.154;11.536;2023-06-01T15:34:51;5.73;;;3.20;;